sensor_id;sensor_type;location;lat;lon;timestamp;P1;durP1;ratioP1;P2;durP2;ratioP2
47778;SDS011;33538;48.432;11.350;2023-04-19T00:01:56;12.57;;;7.30;;
47778;SDS011;33538;48.432;11.350;2023-04-19T00:04:23;12.75;;;7.60;;
47778;SDS011;33538;48.432;11.350;2023-04-19T00:06:50;16.73;;;9.30;;
47778;SDS011;33538;48.432;11.350;2023-04-19T00:09:17;15.68;;;7.70;;
47778;SDS011;33538;48.432;11.350;2023-04-19T00:11:43;14.75;;;8.13;;
47778;SDS011;33538;48.432;11.350;2023-04-19T00:14:11;15.35;;;7.57;;
47778;SDS011;33538;48.432;11.350;2023-04-19T00:16:38;15.00;;;7.72;;
47778;SDS011;33538;48.432;11.350;2023-04-19T00:19:05;17.35;;;8.65;;
47778;SDS011;33538;48.432;11.350;2023-04-19T00:21:32;16.77;;;7.93;;
47778;SDS011;33538;48.432;11.350;2023-04-19T00:24:00;15.40;;;7.90;;
47778;SDS011;33538;48.432;11.350;2023-04-19T00:26:27;13.60;;;8.73;;
47778;SDS011;33538;48.432;11.350;2023-04-19T00:28:54;16.85;;;8.63;;
47778;SDS011;33538;48.432;11.350;2023-04-19T00:31:22;14.20;;;7.70;;
47778;SDS011;33538;48.432;11.350;2023-04-19T00:33:49;15.55;;;8.23;;
47778;SDS011;33538;48.432;11.350;2023-04-19T00:36:16;16.83;;;8.65;;
47778;SDS011;33538;48.432;11.350;2023-04-19T00:38:42;13.20;;;7.68;;
47778;SDS011;33538;48.432;11.350;2023-04-19T00:41:09;13.73;;;8.15;;
47778;SDS011;33538;48.432;11.350;2023-04-19T00:43:36;16.23;;;8.60;;
47778;SDS011;33538;48.432;11.350;2023-04-19T00:46:03;13.52;;;8.00;;
47778;SDS011;33538;48.432;11.350;2023-04-19T00:48:31;13.65;;;8.48;;
47778;SDS011;33538;48.432;11.350;2023-04-19T00:51:00;15.80;;;8.63;;
47778;SDS011;33538;48.432;11.350;2023-04-19T00:53:27;19.20;;;8.82;;
47778;SDS011;33538;48.432;11.350;2023-04-19T00:55:53;14.35;;;8.32;;
47778;SDS011;33538;48.432;11.350;2023-04-19T00:58:24;15.95;;;8.15;;
47778;SDS011;33538;48.432;11.350;2023-04-19T01:00:51;14.52;;;8.05;;
47778;SDS011;33538;48.432;11.350;2023-04-19T01:03:18;17.98;;;8.50;;
47778;SDS011;33538;48.432;11.350;2023-04-19T01:05:46;17.02;;;9.00;;
47778;SDS011;33538;48.432;11.350;2023-04-19T01:08:13;13.95;;;8.27;;
47778;SDS011;33538;48.432;11.350;2023-04-19T01:10:40;13.10;;;7.97;;
47778;SDS011;33538;48.432;11.350;2023-04-19T01:13:07;13.30;;;7.95;;
47778;SDS011;33538;48.432;11.350;2023-04-19T01:15:33;16.75;;;8.63;;
47778;SDS011;33538;48.432;11.350;2023-04-19T01:18:01;15.27;;;8.60;;
47778;SDS011;33538;48.432;11.350;2023-04-19T01:20:28;19.33;;;9.45;;
47778;SDS011;33538;48.432;11.350;2023-04-19T01:22:56;14.75;;;8.65;;
47778;SDS011;33538;48.432;11.350;2023-04-19T01:25:23;17.88;;;8.95;;
47778;SDS011;33538;48.432;11.350;2023-04-19T01:27:49;19.00;;;8.95;;
47778;SDS011;33538;48.432;11.350;2023-04-19T01:30:16;19.77;;;9.35;;
47778;SDS011;33538;48.432;11.350;2023-04-19T01:32:43;13.95;;;8.10;;
47778;SDS011;33538;48.432;11.350;2023-04-19T01:35:10;17.60;;;8.65;;
47778;SDS011;33538;48.432;11.350;2023-04-19T01:37:36;14.52;;;9.07;;
47778;SDS011;33538;48.432;11.350;2023-04-19T01:40:05;15.00;;;8.45;;
47778;SDS011;33538;48.432;11.350;2023-04-19T01:42:32;14.95;;;7.93;;
47778;SDS011;33538;48.432;11.350;2023-04-19T01:44:59;14.30;;;8.55;;
47778;SDS011;33538;48.432;11.350;2023-04-19T01:47:26;15.70;;;8.85;;
47778;SDS011;33538;48.432;11.350;2023-04-19T01:49:52;18.52;;;9.48;;
47778;SDS011;33538;48.432;11.350;2023-04-19T01:52:19;14.48;;;8.02;;
47778;SDS011;33538;48.432;11.350;2023-04-19T01:54:46;14.52;;;7.93;;
47778;SDS011;33538;48.432;11.350;2023-04-19T01:57:14;16.60;;;8.32;;
47778;SDS011;33538;48.432;11.350;2023-04-19T01:59:41;19.23;;;9.15;;
47778;SDS011;33538;48.432;11.350;2023-04-19T02:02:07;17.08;;;8.32;;
47778;SDS011;33538;48.432;11.350;2023-04-19T02:04:34;14.77;;;8.73;;
47778;SDS011;33538;48.432;11.350;2023-04-19T02:07:01;13.27;;;7.90;;
47778;SDS011;33538;48.432;11.350;2023-04-19T02:09:28;15.43;;;8.70;;
47778;SDS011;33538;48.432;11.350;2023-04-19T02:11:54;16.33;;;9.30;;
47778;SDS011;33538;48.432;11.350;2023-04-19T02:14:22;14.82;;;8.18;;
47778;SDS011;33538;48.432;11.350;2023-04-19T02:16:49;17.63;;;9.18;;
47778;SDS011;33538;48.432;11.350;2023-04-19T02:19:16;16.80;;;9.05;;
47778;SDS011;33538;48.432;11.350;2023-04-19T02:21:43;14.43;;;7.65;;
47778;SDS011;33538;48.432;11.350;2023-04-19T02:24:09;15.40;;;8.63;;
47778;SDS011;33538;48.432;11.350;2023-04-19T02:26:36;25.20;;;9.88;;
47778;SDS011;33538;48.432;11.350;2023-04-19T02:29:04;18.45;;;8.98;;
47778;SDS011;33538;48.432;11.350;2023-04-19T02:31:33;18.80;;;9.75;;
47778;SDS011;33538;48.432;11.350;2023-04-19T02:34:01;16.83;;;8.70;;
47778;SDS011;33538;48.432;11.350;2023-04-19T02:36:28;17.65;;;9.63;;
47778;SDS011;33538;48.432;11.350;2023-04-19T02:38:55;16.73;;;9.82;;
47778;SDS011;33538;48.432;11.350;2023-04-19T02:41:21;17.08;;;9.32;;
47778;SDS011;33538;48.432;11.350;2023-04-19T02:43:48;19.73;;;9.32;;
47778;SDS011;33538;48.432;11.350;2023-04-19T02:46:15;17.60;;;9.77;;
47778;SDS011;33538;48.432;11.350;2023-04-19T02:48:43;19.08;;;10.20;;
47778;SDS011;33538;48.432;11.350;2023-04-19T02:51:13;20.52;;;9.80;;
47778;SDS011;33538;48.432;11.350;2023-04-19T02:53:40;18.90;;;8.68;;
47778;SDS011;33538;48.432;11.350;2023-04-19T02:56:07;18.70;;;10.02;;
47778;SDS011;33538;48.432;11.350;2023-04-19T02:58:34;20.40;;;10.00;;
47778;SDS011;33538;48.432;11.350;2023-04-19T03:01:01;18.23;;;8.85;;
47778;SDS011;33538;48.432;11.350;2023-04-19T03:03:28;18.00;;;8.95;;
47778;SDS011;33538;48.432;11.350;2023-04-19T03:05:56;20.63;;;9.70;;
47778;SDS011;33538;48.432;11.350;2023-04-19T03:08:23;20.67;;;10.02;;
47778;SDS011;33538;48.432;11.350;2023-04-19T03:10:49;16.90;;;9.13;;
47778;SDS011;33538;48.432;11.350;2023-04-19T03:13:16;17.17;;;9.40;;
47778;SDS011;33538;48.432;11.350;2023-04-19T03:15:43;20.10;;;10.32;;
47778;SDS011;33538;48.432;11.350;2023-04-19T03:18:10;20.67;;;10.30;;
47778;SDS011;33538;48.432;11.350;2023-04-19T03:20:36;21.42;;;9.82;;
47778;SDS011;33538;48.432;11.350;2023-04-19T03:23:04;22.00;;;10.52;;
47778;SDS011;33538;48.432;11.350;2023-04-19T03:25:31;21.42;;;10.63;;
47778;SDS011;33538;48.432;11.350;2023-04-19T03:27:58;18.38;;;9.77;;
47778;SDS011;33538;48.432;11.350;2023-04-19T03:30:25;19.05;;;9.85;;
47778;SDS011;33538;48.432;11.350;2023-04-19T03:32:51;15.63;;;9.20;;
47778;SDS011;33538;48.432;11.350;2023-04-19T03:35:18;23.40;;;11.18;;
47778;SDS011;33538;48.432;11.350;2023-04-19T03:37:45;20.48;;;10.63;;
47778;SDS011;33538;48.432;11.350;2023-04-19T03:40:14;21.77;;;10.60;;
47778;SDS011;33538;48.432;11.350;2023-04-19T03:42:41;20.80;;;10.52;;
47778;SDS011;33538;48.432;11.350;2023-04-19T03:45:08;19.95;;;10.35;;
47778;SDS011;33538;48.432;11.350;2023-04-19T03:47:35;18.65;;;9.30;;
47778;SDS011;33538;48.432;11.350;2023-04-19T03:50:02;19.50;;;10.68;;
47778;SDS011;33538;48.432;11.350;2023-04-19T03:52:30;19.73;;;10.07;;
47778;SDS011;33538;48.432;11.350;2023-04-19T03:54:56;16.98;;;9.50;;
47778;SDS011;33538;48.432;11.350;2023-04-19T03:57:24;17.05;;;9.90;;
47778;SDS011;33538;48.432;11.350;2023-04-19T03:59:51;16.58;;;9.60;;
47778;SDS011;33538;48.432;11.350;2023-04-19T04:02:18;17.33;;;9.57;;
47778;SDS011;33538;48.432;11.350;2023-04-19T04:04:45;19.77;;;10.05;;
47778;SDS011;33538;48.432;11.350;2023-04-19T04:07:12;20.50;;;9.20;;
47778;SDS011;33538;48.432;11.350;2023-04-19T04:09:39;18.85;;;9.60;;
47778;SDS011;33538;48.432;11.350;2023-04-19T04:12:05;21.92;;;9.95;;
47778;SDS011;33538;48.432;11.350;2023-04-19T04:14:34;23.45;;;10.40;;
47778;SDS011;33538;48.432;11.350;2023-04-19T04:17:00;20.38;;;10.07;;
47778;SDS011;33538;48.432;11.350;2023-04-19T04:19:27;19.13;;;9.85;;
47778;SDS011;33538;48.432;11.350;2023-04-19T04:21:54;20.65;;;10.00;;
47778;SDS011;33538;48.432;11.350;2023-04-19T04:24:20;20.73;;;10.15;;
47778;SDS011;33538;48.432;11.350;2023-04-19T04:26:47;23.48;;;10.40;;
47778;SDS011;33538;48.432;11.350;2023-04-19T04:29:14;20.20;;;10.10;;
47778;SDS011;33538;48.432;11.350;2023-04-19T04:31:42;20.05;;;9.38;;
47778;SDS011;33538;48.432;11.350;2023-04-19T04:34:09;22.48;;;10.73;;
47778;SDS011;33538;48.432;11.350;2023-04-19T04:36:36;23.88;;;11.00;;
47778;SDS011;33538;48.432;11.350;2023-04-19T04:39:02;22.40;;;10.60;;
47778;SDS011;33538;48.432;11.350;2023-04-19T04:41:30;22.05;;;10.23;;
47778;SDS011;33538;48.432;11.350;2023-04-19T04:43:56;20.60;;;9.77;;
47778;SDS011;33538;48.432;11.350;2023-04-19T04:46:37;19.17;;;10.40;;
47778;SDS011;33538;48.432;11.350;2023-04-19T04:49:05;23.30;;;10.43;;
47778;SDS011;33538;48.432;11.350;2023-04-19T04:51:32;20.60;;;9.90;;
47778;SDS011;33538;48.432;11.350;2023-04-19T04:53:59;21.60;;;9.63;;
47778;SDS011;33538;48.432;11.350;2023-04-19T04:56:26;17.27;;;9.18;;
47778;SDS011;33538;48.432;11.350;2023-04-19T04:58:53;24.52;;;9.95;;
47778;SDS011;33538;48.432;11.350;2023-04-19T05:01:20;21.80;;;10.45;;
47778;SDS011;33538;48.432;11.350;2023-04-19T05:03:46;21.70;;;9.63;;
47778;SDS011;33538;48.432;11.350;2023-04-19T05:06:15;22.08;;;10.45;;
47778;SDS011;33538;48.432;11.350;2023-04-19T05:08:42;24.02;;;10.65;;
47778;SDS011;33538;48.432;11.350;2023-04-19T05:11:09;19.05;;;9.57;;
47778;SDS011;33538;48.432;11.350;2023-04-19T05:13:36;23.63;;;11.00;;
47778;SDS011;33538;48.432;11.350;2023-04-19T05:16:03;24.38;;;10.88;;
47778;SDS011;33538;48.432;11.350;2023-04-19T05:18:30;20.42;;;9.70;;
47778;SDS011;33538;48.432;11.350;2023-04-19T05:20:57;23.45;;;9.73;;
47778;SDS011;33538;48.432;11.350;2023-04-19T05:23:25;22.02;;;10.60;;
47778;SDS011;33538;48.432;11.350;2023-04-19T05:25:51;22.50;;;10.07;;
47778;SDS011;33538;48.432;11.350;2023-04-19T05:28:18;19.80;;;9.45;;
47778;SDS011;33538;48.432;11.350;2023-04-19T05:30:45;23.25;;;10.13;;
47778;SDS011;33538;48.432;11.350;2023-04-19T05:33:11;21.27;;;9.10;;
47778;SDS011;33538;48.432;11.350;2023-04-19T05:35:38;19.13;;;9.07;;
47778;SDS011;33538;48.432;11.350;2023-04-19T05:38:05;20.73;;;11.02;;
47778;SDS011;33538;48.432;11.350;2023-04-19T05:40:33;21.98;;;10.07;;
47778;SDS011;33538;48.432;11.350;2023-04-19T05:43:00;21.75;;;9.57;;
47778;SDS011;33538;48.432;11.350;2023-04-19T05:45:26;24.45;;;10.18;;
47778;SDS011;33538;48.432;11.350;2023-04-19T05:47:53;21.83;;;10.23;;
47778;SDS011;33538;48.432;11.350;2023-04-19T05:50:20;20.42;;;9.23;;
47778;SDS011;33538;48.432;11.350;2023-04-19T05:52:47;22.92;;;10.55;;
47778;SDS011;33538;48.432;11.350;2023-04-19T05:55:13;21.40;;;10.32;;
47778;SDS011;33538;48.432;11.350;2023-04-19T05:57:41;19.95;;;9.32;;
47778;SDS011;33538;48.432;11.350;2023-04-19T06:00:09;19.85;;;10.32;;
47778;SDS011;33538;48.432;11.350;2023-04-19T06:02:36;26.65;;;11.20;;
47778;SDS011;33538;48.432;11.350;2023-04-19T06:05:03;17.80;;;9.00;;
47778;SDS011;33538;48.432;11.350;2023-04-19T06:07:36;19.33;;;9.13;;
47778;SDS011;33538;48.432;11.350;2023-04-19T06:10:09;17.55;;;8.77;;
47778;SDS011;33538;48.432;11.350;2023-04-19T06:12:36;25.58;;;10.25;;
47778;SDS011;33538;48.432;11.350;2023-04-19T06:15:04;27.08;;;12.13;;
47778;SDS011;33538;48.432;11.350;2023-04-19T06:17:32;22.85;;;10.63;;
47778;SDS011;33538;48.432;11.350;2023-04-19T06:19:59;20.92;;;10.25;;
47778;SDS011;33538;48.432;11.350;2023-04-19T06:22:25;22.80;;;10.48;;
47778;SDS011;33538;48.432;11.350;2023-04-19T06:24:52;26.58;;;10.15;;
47778;SDS011;33538;48.432;11.350;2023-04-19T06:27:19;22.45;;;10.70;;
47778;SDS011;33538;48.432;11.350;2023-04-19T06:29:46;24.02;;;11.00;;
47778;SDS011;33538;48.432;11.350;2023-04-19T06:32:16;21.40;;;10.25;;
47778;SDS011;33538;48.432;11.350;2023-04-19T06:34:43;19.20;;;9.65;;
47778;SDS011;33538;48.432;11.350;2023-04-19T06:37:10;19.38;;;9.05;;
47778;SDS011;33538;48.432;11.350;2023-04-19T06:39:36;21.90;;;10.30;;
47778;SDS011;33538;48.432;11.350;2023-04-19T06:42:03;25.95;;;10.73;;
47778;SDS011;33538;48.432;11.350;2023-04-19T06:44:30;23.20;;;9.88;;
47778;SDS011;33538;48.432;11.350;2023-04-19T06:46:57;20.15;;;9.13;;
47778;SDS011;33538;48.432;11.350;2023-04-19T06:49:25;24.40;;;11.40;;
47778;SDS011;33538;48.432;11.350;2023-04-19T06:51:52;20.95;;;9.70;;
47778;SDS011;33538;48.432;11.350;2023-04-19T06:54:18;23.42;;;10.23;;
47778;SDS011;33538;48.432;11.350;2023-04-19T06:56:46;26.30;;;10.75;;
47778;SDS011;33538;48.432;11.350;2023-04-19T06:59:14;20.77;;;9.85;;
47778;SDS011;33538;48.432;11.350;2023-04-19T07:01:41;23.17;;;9.88;;
47778;SDS011;33538;48.432;11.350;2023-04-19T07:04:08;22.05;;;9.90;;
47778;SDS011;33538;48.432;11.350;2023-04-19T07:06:37;20.25;;;9.98;;
47778;SDS011;33538;48.432;11.350;2023-04-19T07:09:05;23.73;;;9.68;;
47778;SDS011;33538;48.432;11.350;2023-04-19T07:11:32;20.80;;;9.45;;
47778;SDS011;33538;48.432;11.350;2023-04-19T07:13:59;24.52;;;10.73;;
47778;SDS011;33538;48.432;11.350;2023-04-19T07:16:26;24.40;;;9.57;;
47778;SDS011;33538;48.432;11.350;2023-04-19T07:18:53;21.20;;;10.00;;
47778;SDS011;33538;48.432;11.350;2023-04-19T07:21:20;16.92;;;9.07;;
47778;SDS011;33538;48.432;11.350;2023-04-19T07:23:48;23.40;;;10.40;;
47778;SDS011;33538;48.432;11.350;2023-04-19T07:26:15;20.13;;;10.35;;
47778;SDS011;33538;48.432;11.350;2023-04-19T07:28:42;22.95;;;10.60;;
47778;SDS011;33538;48.432;11.350;2023-04-19T07:31:13;26.45;;;11.57;;
47778;SDS011;33538;48.432;11.350;2023-04-19T07:33:40;21.63;;;10.27;;
47778;SDS011;33538;48.432;11.350;2023-04-19T07:36:06;20.05;;;8.80;;
47778;SDS011;33538;48.432;11.350;2023-04-19T07:38:33;22.35;;;9.90;;
47778;SDS011;33538;48.432;11.350;2023-04-19T07:41:01;22.00;;;9.48;;
47778;SDS011;33538;48.432;11.350;2023-04-19T07:43:28;19.15;;;10.10;;
47778;SDS011;33538;48.432;11.350;2023-04-19T07:45:55;22.60;;;10.80;;
47778;SDS011;33538;48.432;11.350;2023-04-19T07:48:22;18.25;;;9.88;;
47778;SDS011;33538;48.432;11.350;2023-04-19T07:50:48;21.75;;;9.77;;
47778;SDS011;33538;48.432;11.350;2023-04-19T07:53:15;19.80;;;10.18;;
47778;SDS011;33538;48.432;11.350;2023-04-19T07:55:42;21.13;;;9.73;;
47778;SDS011;33538;48.432;11.350;2023-04-19T07:58:10;23.40;;;10.38;;
47778;SDS011;33538;48.432;11.350;2023-04-19T08:00:37;21.20;;;10.05;;
47778;SDS011;33538;48.432;11.350;2023-04-19T08:03:03;19.65;;;9.30;;
47778;SDS011;33538;48.432;11.350;2023-04-19T08:05:31;19.40;;;9.77;;
47778;SDS011;33538;48.432;11.350;2023-04-19T08:07:58;22.65;;;10.80;;
47778;SDS011;33538;48.432;11.350;2023-04-19T08:10:25;23.63;;;11.00;;
47778;SDS011;33538;48.432;11.350;2023-04-19T08:12:52;18.50;;;9.48;;
47778;SDS011;33538;48.432;11.350;2023-04-19T08:15:32;20.20;;;10.02;;
47778;SDS011;33538;48.432;11.350;2023-04-19T08:18:03;22.85;;;11.07;;
47778;SDS011;33538;48.432;11.350;2023-04-19T08:20:30;20.50;;;9.75;;
47778;SDS011;33538;48.432;11.350;2023-04-19T08:22:57;21.20;;;10.45;;
47778;SDS011;33538;48.432;11.350;2023-04-19T08:25:35;21.33;;;9.90;;
47778;SDS011;33538;48.432;11.350;2023-04-19T08:28:02;21.70;;;9.93;;
47778;SDS011;33538;48.432;11.350;2023-04-19T08:30:30;21.33;;;10.55;;
47778;SDS011;33538;48.432;11.350;2023-04-19T08:32:58;22.95;;;11.00;;
47778;SDS011;33538;48.432;11.350;2023-04-19T08:35:25;21.92;;;10.60;;
47778;SDS011;33538;48.432;11.350;2023-04-19T08:37:52;21.90;;;10.93;;
47778;SDS011;33538;48.432;11.350;2023-04-19T08:40:19;18.70;;;9.73;;
47778;SDS011;33538;48.432;11.350;2023-04-19T08:42:46;20.95;;;10.32;;
47778;SDS011;33538;48.432;11.350;2023-04-19T08:45:12;17.30;;;8.88;;
47778;SDS011;33538;48.432;11.350;2023-04-19T08:47:53;19.60;;;9.13;;
47778;SDS011;33538;48.432;11.350;2023-04-19T08:50:28;20.77;;;9.40;;
47778;SDS011;33538;48.432;11.350;2023-04-19T08:53:03;22.92;;;9.95;;
47778;SDS011;33538;48.432;11.350;2023-04-19T08:55:35;23.73;;;10.57;;
47778;SDS011;33538;48.432;11.350;2023-04-19T08:58:10;21.17;;;9.48;;
47778;SDS011;33538;48.432;11.350;2023-04-19T09:00:51;21.15;;;10.27;;
47778;SDS011;33538;48.432;11.350;2023-04-19T09:03:18;21.67;;;10.32;;
47778;SDS011;33538;48.432;11.350;2023-04-19T09:05:46;20.83;;;10.07;;
47778;SDS011;33538;48.432;11.350;2023-04-19T09:08:20;23.05;;;10.18;;
47778;SDS011;33538;48.432;11.350;2023-04-19T09:10:51;21.45;;;10.57;;
47778;SDS011;33538;48.432;11.350;2023-04-19T09:13:19;19.90;;;10.10;;
47778;SDS011;33538;48.432;11.350;2023-04-19T09:15:46;18.23;;;9.23;;
47778;SDS011;33538;48.432;11.350;2023-04-19T09:18:13;20.10;;;10.48;;
47778;SDS011;33538;48.432;11.350;2023-04-19T09:20:41;18.20;;;8.80;;
47778;SDS011;33538;48.432;11.350;2023-04-19T09:23:11;21.17;;;10.63;;
47778;SDS011;33538;48.432;11.350;2023-04-19T09:25:40;19.20;;;8.98;;
47778;SDS011;33538;48.432;11.350;2023-04-19T09:28:37;22.55;;;9.82;;
47778;SDS011;33538;48.432;11.350;2023-04-19T09:31:09;20.98;;;10.40;;
47778;SDS011;33538;48.432;11.350;2023-04-19T09:33:56;19.00;;;9.73;;
47778;SDS011;33538;48.432;11.350;2023-04-19T09:36:36;22.63;;;9.63;;
47778;SDS011;33538;48.432;11.350;2023-04-19T09:39:05;14.68;;;8.02;;
47778;SDS011;33538;48.432;11.350;2023-04-19T09:41:31;21.73;;;10.00;;
47778;SDS011;33538;48.432;11.350;2023-04-19T09:44:07;14.70;;;8.52;;
47778;SDS011;33538;48.432;11.350;2023-04-19T09:46:55;20.50;;;8.95;;
47778;SDS011;33538;48.432;11.350;2023-04-19T09:49:22;17.67;;;9.20;;
47778;SDS011;33538;48.432;11.350;2023-04-19T09:52:10;21.85;;;9.77;;
47778;SDS011;33538;48.432;11.350;2023-04-19T09:54:40;19.45;;;9.75;;
47778;SDS011;33538;48.432;11.350;2023-04-19T09:57:07;21.83;;;10.45;;
47778;SDS011;33538;48.432;11.350;2023-04-19T09:59:35;21.92;;;11.00;;
47778;SDS011;33538;48.432;11.350;2023-04-19T10:02:01;22.52;;;10.68;;
47778;SDS011;33538;48.432;11.350;2023-04-19T10:04:31;21.60;;;11.02;;
47778;SDS011;33538;48.432;11.350;2023-04-19T10:07:18;22.88;;;9.90;;
47778;SDS011;33538;48.432;11.350;2023-04-19T10:09:50;20.80;;;10.00;;
47778;SDS011;33538;48.432;11.350;2023-04-19T10:12:24;19.73;;;9.95;;
47778;SDS011;33538;48.432;11.350;2023-04-19T10:14:54;17.40;;;9.13;;
47778;SDS011;33538;48.432;11.350;2023-04-19T10:17:21;19.48;;;9.48;;
47778;SDS011;33538;48.432;11.350;2023-04-19T10:19:50;18.27;;;10.07;;
47778;SDS011;33538;48.432;11.350;2023-04-19T10:22:21;21.52;;;9.77;;
47778;SDS011;33538;48.432;11.350;2023-04-19T10:25:07;22.08;;;11.20;;
47778;SDS011;33538;48.432;11.350;2023-04-19T10:27:35;18.58;;;9.57;;
47778;SDS011;33538;48.432;11.350;2023-04-19T10:30:02;21.30;;;11.00;;
47778;SDS011;33538;48.432;11.350;2023-04-19T10:32:36;23.35;;;10.23;;
47778;SDS011;33538;48.432;11.350;2023-04-19T10:35:06;20.23;;;10.43;;
47778;SDS011;33538;48.432;11.350;2023-04-19T10:37:34;19.35;;;10.77;;
47778;SDS011;33538;48.432;11.350;2023-04-19T10:40:05;22.65;;;10.40;;
47778;SDS011;33538;48.432;11.350;2023-04-19T10:45:40;24.42;;;11.70;;
47778;SDS011;33538;48.432;11.350;2023-04-19T10:48:10;20.83;;;10.43;;
47778;SDS011;33538;48.432;11.350;2023-04-19T10:50:57;25.00;;;11.43;;
47778;SDS011;33538;48.432;11.350;2023-04-19T10:56:11;25.73;;;11.10;;
47778;SDS011;33538;48.432;11.350;2023-04-19T11:01:43;22.83;;;11.17;;
47778;SDS011;33538;48.432;11.350;2023-04-19T11:04:12;22.40;;;11.90;;
47778;SDS011;33538;48.432;11.350;2023-04-19T11:06:55;23.98;;;11.52;;
47778;SDS011;33538;48.432;11.350;2023-04-19T11:09:24;24.60;;;12.10;;
47778;SDS011;33538;48.432;11.350;2023-04-19T11:11:59;25.10;;;12.23;;
47778;SDS011;33538;48.432;11.350;2023-04-19T11:14:29;24.02;;;12.55;;
47778;SDS011;33538;48.432;11.350;2023-04-19T11:16:56;27.65;;;13.27;;
47778;SDS011;33538;48.432;11.350;2023-04-19T11:19:23;21.65;;;11.27;;
47778;SDS011;33538;48.432;11.350;2023-04-19T11:21:50;26.60;;;13.13;;
47778;SDS011;33538;48.432;11.350;2023-04-19T11:24:17;26.98;;;11.98;;
47778;SDS011;33538;48.432;11.350;2023-04-19T11:26:44;27.95;;;13.32;;
47778;SDS011;33538;48.432;11.350;2023-04-19T11:29:12;26.13;;;13.30;;
47778;SDS011;33538;48.432;11.350;2023-04-19T11:31:42;26.50;;;12.52;;
47778;SDS011;33538;48.432;11.350;2023-04-19T11:34:09;27.17;;;12.82;;
47778;SDS011;33538;48.432;11.350;2023-04-19T11:36:45;28.25;;;11.55;;
47778;SDS011;33538;48.432;11.350;2023-04-19T11:39:12;25.77;;;11.98;;
47778;SDS011;33538;48.432;11.350;2023-04-19T11:41:39;24.27;;;11.98;;
47778;SDS011;33538;48.432;11.350;2023-04-19T11:44:13;28.58;;;12.40;;
47778;SDS011;33538;48.432;11.350;2023-04-19T11:46:40;29.92;;;11.77;;
47778;SDS011;33538;48.432;11.350;2023-04-19T11:49:07;23.80;;;12.05;;
47778;SDS011;33538;48.432;11.350;2023-04-19T11:51:34;18.55;;;8.82;;
47778;SDS011;33538;48.432;11.350;2023-04-19T11:54:11;12.88;;;7.28;;
47778;SDS011;33538;48.432;11.350;2023-04-19T11:59:28;11.88;;;6.63;;
47778;SDS011;33538;48.432;11.350;2023-04-19T12:02:03;12.25;;;6.63;;
47778;SDS011;33538;48.432;11.350;2023-04-19T12:04:30;12.50;;;5.82;;
47778;SDS011;33538;48.432;11.350;2023-04-19T12:06:57;12.05;;;5.97;;
47778;SDS011;33538;48.432;11.350;2023-04-19T12:09:25;9.80;;;5.70;;
47778;SDS011;33538;48.432;11.350;2023-04-19T12:11:52;10.85;;;5.60;;
47778;SDS011;33538;48.432;11.350;2023-04-19T12:14:19;11.40;;;6.18;;
47778;SDS011;33538;48.432;11.350;2023-04-19T12:17:07;9.50;;;5.22;;
47778;SDS011;33538;48.432;11.350;2023-04-19T12:19:35;9.15;;;4.63;;
47778;SDS011;33538;48.432;11.350;2023-04-19T12:22:06;10.77;;;5.90;;
47778;SDS011;33538;48.432;11.350;2023-04-19T12:24:33;9.18;;;5.68;;
47778;SDS011;33538;48.432;11.350;2023-04-19T12:27:00;13.68;;;5.70;;
47778;SDS011;33538;48.432;11.350;2023-04-19T12:29:28;9.70;;;5.22;;
47778;SDS011;33538;48.432;11.350;2023-04-19T12:31:55;10.15;;;4.70;;
47778;SDS011;33538;48.432;11.350;2023-04-19T12:34:23;8.32;;;4.47;;
47778;SDS011;33538;48.432;11.350;2023-04-19T12:36:49;6.28;;;3.80;;
47778;SDS011;33538;48.432;11.350;2023-04-19T12:39:16;6.53;;;3.95;;
47778;SDS011;33538;48.432;11.350;2023-04-19T12:41:43;9.43;;;4.35;;
47778;SDS011;33538;48.432;11.350;2023-04-19T12:44:10;7.97;;;4.75;;
47778;SDS011;33538;48.432;11.350;2023-04-19T12:46:37;8.00;;;4.78;;
47778;SDS011;33538;48.432;11.350;2023-04-19T12:49:03;9.45;;;4.80;;
47778;SDS011;33538;48.432;11.350;2023-04-19T12:51:31;9.30;;;4.82;;
47778;SDS011;33538;48.432;11.350;2023-04-19T12:53:58;6.57;;;3.90;;
47778;SDS011;33538;48.432;11.350;2023-04-19T12:56:25;8.35;;;4.78;;
47778;SDS011;33538;48.432;11.350;2023-04-19T12:58:52;7.32;;;3.80;;
47778;SDS011;33538;48.432;11.350;2023-04-19T13:01:18;8.07;;;4.28;;
47778;SDS011;33538;48.432;11.350;2023-04-19T13:03:45;6.93;;;3.72;;
47778;SDS011;33538;48.432;11.350;2023-04-19T13:06:12;7.82;;;4.32;;
47778;SDS011;33538;48.432;11.350;2023-04-19T13:08:41;9.15;;;4.07;;
47778;SDS011;33538;48.432;11.350;2023-04-19T13:11:12;6.80;;;3.45;;
47778;SDS011;33538;48.432;11.350;2023-04-19T13:13:40;5.57;;;3.45;;
47778;SDS011;33538;48.432;11.350;2023-04-19T13:16:06;6.75;;;4.00;;
47778;SDS011;33538;48.432;11.350;2023-04-19T13:18:33;5.78;;;3.50;;
47778;SDS011;33538;48.432;11.350;2023-04-19T13:21:00;7.70;;;4.50;;
47778;SDS011;33538;48.432;11.350;2023-04-19T13:23:27;8.38;;;4.72;;
47778;SDS011;33538;48.432;11.350;2023-04-19T13:25:55;10.88;;;5.85;;
47778;SDS011;33538;48.432;11.350;2023-04-19T13:28:22;12.77;;;6.47;;
47778;SDS011;33538;48.432;11.350;2023-04-19T13:30:48;10.60;;;5.50;;
47778;SDS011;33538;48.432;11.350;2023-04-19T13:33:15;14.10;;;6.90;;
47778;SDS011;33538;48.432;11.350;2023-04-19T13:35:42;12.15;;;6.68;;
47778;SDS011;33538;48.432;11.350;2023-04-19T13:38:08;14.90;;;7.45;;
47778;SDS011;33538;48.432;11.350;2023-04-19T13:40:35;13.48;;;6.50;;
47778;SDS011;33538;48.432;11.350;2023-04-19T13:43:03;11.52;;;6.30;;
47778;SDS011;33538;48.432;11.350;2023-04-19T13:45:30;12.82;;;7.10;;
47778;SDS011;33538;48.432;11.350;2023-04-19T13:47:57;11.27;;;5.95;;
47778;SDS011;33538;48.432;11.350;2023-04-19T13:50:23;14.38;;;7.80;;
47778;SDS011;33538;48.432;11.350;2023-04-19T13:52:50;14.25;;;7.63;;
47778;SDS011;33538;48.432;11.350;2023-04-19T13:55:17;17.35;;;7.95;;
47778;SDS011;33538;48.432;11.350;2023-04-19T13:57:44;14.20;;;6.32;;
47778;SDS011;33538;48.432;11.350;2023-04-19T14:00:12;12.32;;;6.35;;
47778;SDS011;33538;48.432;11.350;2023-04-19T14:02:40;10.70;;;6.05;;
47778;SDS011;33538;48.432;11.350;2023-04-19T14:05:07;12.65;;;6.35;;
47778;SDS011;33538;48.432;11.350;2023-04-19T14:07:34;9.63;;;5.28;;
47778;SDS011;33538;48.432;11.350;2023-04-19T14:10:01;8.65;;;5.30;;
47778;SDS011;33538;48.432;11.350;2023-04-19T14:12:28;9.52;;;5.70;;
47778;SDS011;33538;48.432;11.350;2023-04-19T14:14:55;9.80;;;5.80;;
47778;SDS011;33538;48.432;11.350;2023-04-19T14:17:23;11.13;;;5.60;;
47778;SDS011;33538;48.432;11.350;2023-04-19T14:19:50;7.95;;;5.05;;
47778;SDS011;33538;48.432;11.350;2023-04-19T14:22:16;7.38;;;4.40;;
47778;SDS011;33538;48.432;11.350;2023-04-19T14:24:43;8.00;;;4.55;;
47778;SDS011;33538;48.432;11.350;2023-04-19T14:27:10;9.23;;;5.13;;
47778;SDS011;33538;48.432;11.350;2023-04-19T14:29:37;9.82;;;4.57;;
47778;SDS011;33538;48.432;11.350;2023-04-19T14:32:04;8.82;;;4.15;;
47778;SDS011;33538;48.432;11.350;2023-04-19T14:34:51;6.07;;;3.67;;
47778;SDS011;33538;48.432;11.350;2023-04-19T14:37:18;7.30;;;3.83;;